Terminal Aerodrome Forecast
Issued by NWS Quad Cities IA IL

Home | Current Version | Previous Version | Text Only | Print | Product List | Glossary On
Versions: 1 2 3 4 5 6 7 8 9 10 11 12 13 14 15 16 17 18 19 20 21 22 23 24 25 26 27
436
FTUS43 KDVN 212340
TAFMLI
TAF
KMLI 212340Z 2200/2224 17004KT P6SM BKN150 OVC250
      TEMPO 2200/2203 27020G35KT 2SM -TSRA BR BKN030CB OVC045
     FM220500 15008KT P6SM BKN100
     FM221400 24007KT P6SM BKN150
     FM222100 30009KT P6SM SCT250=

USA.gov is the U.S. government's official web portal to all federal, state and local government web resources and services.